Weather at Worland Municipal Airport

Public forecast

Using degrees Fahrenheit for public forecast. Weather courtesy of forecast.io.

Current aviation weather report (METAR) for Worland Municipal Airport

Retrieved 2020/11/28 00:53 UTC (31 minutes ago):

KWRL 280053Z AUTO 14004KT 10SM CLR M01/M11 A3015 RMK AO2 SLP264 T10061111

Aviation forecast (TAF) for Worland Municipal Airport

Retrieved 2020-11-28 00:24 UTC (1 hour ago):

TAF KWRL 272322Z 2800/2824 VRB05KT P6SM SKC